Time;durP1;ratioP1;P1;durP2;ratioP2;P2;SDS_P1;SDS_P2;PMS_P1;PMS_P2;Temp;Humidity;BMP_temperature;BMP_pressure;BME280_temperature;BME280_humidity;BME280_pressure;Samples;Min_cycle;Max_cycle;Signal;HPM_P1;HPM_P2
2022/04/19 00:01:16;;;;;;;6.40;3.65;;;5.60;50.50;;;;;;5031695;28;20278;-64
2022/04/19 00:03:44;;;;;;;6.85;4.35;;;5.60;50.00;;;;;;5032316;28;20625;-62
2022/04/19 00:06:12;;;;;;;5.50;3.70;;;5.50;49.90;;;;;;5031945;28;20622;-63
2022/04/19 00:08:39;;;;;;;6.15;3.25;;;5.40;50.50;;;;;;5031688;28;20685;-67
2022/04/19 00:11:06;;;;;;;3.60;3.05;;;5.50;50.80;;;;;;5032190;28;20234;-62
2022/04/19 00:13:33;;;;;;;4.05;2.85;;;5.40;51.20;;;;;;5031543;28;20187;-62
2022/04/19 00:16:00;;;;;;;4.70;2.83;;;5.50;51.10;;;;;;5032024;28;20261;-62
2022/04/19 00:18:28;;;;;;;5.43;3.05;;;5.50;51.10;;;;;;5032158;28;20226;-62
2022/04/19 00:20:56;;;;;;;4.72;3.10;;;5.50;50.80;;;;;;5031629;28;20721;-62
2022/04/19 00:23:23;;;;;;;2.60;2.03;;;5.40;51.20;;;;;;5031565;28;20190;-62
2022/04/19 00:25:52;;;;;;;5.15;2.90;;;5.40;51.10;;;;;;5031558;28;20191;-62
2022/04/19 00:28:20;;;;;;;3.55;2.72;;;5.20;51.60;;;;;;5031820;28;20237;-61
2022/04/19 00:30:48;;;;;;;5.72;3.08;;;5.10;51.80;;;;;;5031720;28;20223;-62
2022/04/19 00:33:16;;;;;;;4.20;3.00;;;4.90;52.30;;;;;;5032079;28;20199;-62
2022/04/19 00:35:43;;;;;;;4.85;3.05;;;4.80;53.20;;;;;;5031718;28;20642;-62
2022/04/19 00:38:12;;;;;;;7.95;2.90;;;4.80;53.50;;;;;;5031851;28;20304;-62
2022/04/19 00:40:39;;;;;;;5.90;3.42;;;4.70;53.40;;;;;;5031616;28;20231;-62
2022/04/19 00:43:08;;;;;;;3.58;2.72;;;4.60;53.40;;;;;;5031657;28;20191;-62
2022/04/19 00:45:35;;;;;;;5.20;3.30;;;4.60;53.80;;;;;;5031274;28;20195;-62
2022/04/19 00:48:03;;;;;;;4.35;3.10;;;4.60;53.40;;;;;;5035507;28;20309;-62
2022/04/19 00:50:31;;;;;;;5.15;2.67;;;4.50;53.80;;;;;;5035140;28;20703;-62
2022/04/19 00:52:59;;;;;;;5.57;3.30;;;4.40;54.60;;;;;;5035190;28;20257;-62
2022/04/19 00:55:28;;;;;;;5.45;2.63;;;4.40;54.60;;;;;;5035278;28;20206;-62
2022/04/19 00:57:56;;;;;;;6.80;2.85;;;4.40;55.00;;;;;;5035420;28;20202;-62
2022/04/19 01:00:24;;;;;;;5.32;3.13;;;4.40;54.90;;;;;;5035136;28;20187;-62
2022/04/19 01:02:51;;;;;;;4.85;2.80;;;4.40;55.00;;;;;;5035096;28;20662;-62
2022/04/19 01:05:18;;;;;;;6.30;3.10;;;4.50;54.80;;;;;;5034809;28;20213;-62
2022/04/19 01:07:46;;;;;;;5.88;2.90;;;4.60;54.90;;;;;;5035032;28;20219;-62
2022/04/19 01:10:14;;;;;;;3.47;2.25;;;4.70;54.60;;;;;;5034957;28;20273;-61
2022/04/19 01:15:27;;;;;;;3.97;2.50;;;4.70;54.30;;;;;;5034275;28;20198;-62
2022/04/19 01:17:54;;;;;;;3.85;2.55;;;4.60;53.90;;;;;;5034441;28;20194;-62
2022/04/19 01:20:22;;;;;;;3.50;2.40;;;4.60;54.20;;;;;;5035018;28;20229;-62
2022/04/19 01:22:51;;;;;;;3.67;2.20;;;4.70;54.20;;;;;;5034378;28;20187;-64
2022/04/19 01:25:20;;;;;;;6.03;2.88;;;4.80;54.20;;;;;;5034773;28;20253;-62
2022/04/19 01:27:47;;;;;;;5.80;2.35;;;4.80;54.10;;;;;;5033976;28;20703;-63
2022/04/19 01:30:17;;;;;;;4.43;3.05;;;4.80;53.80;;;;;;5034213;28;20218;-62
2022/04/19 01:32:44;;;;;;;3.60;2.55;;;4.80;53.30;;;;;;5034411;28;20187;-62
2022/04/19 01:35:14;;;;;;;4.85;2.38;;;4.90;53.80;;;;;;5034553;28;20191;-62
2022/04/19 01:37:43;;;;;;;3.35;2.33;;;4.90;54.00;;;;;;5034062;28;20218;-62
2022/04/19 01:40:18;;;;;;;4.72;2.83;;;4.90;53.30;;;;;;5034434;28;20704;-62
2022/04/19 01:42:48;;;;;;;4.13;2.15;;;4.80;53.10;;;;;;5034114;28;20187;-62
2022/04/19 01:45:16;;;;;;;3.13;2.10;;;4.80;53.30;;;;;;5034474;28;20191;-62
2022/04/19 01:47:44;;;;;;;3.10;2.22;;;4.80;52.90;;;;;;5033857;28;20198;-62
2022/04/19 01:50:13;;;;;;;4.28;2.03;;;4.70;53.10;;;;;;5034317;28;20195;-62
2022/04/19 01:52:42;;;;;;;4.57;2.15;;;4.70;53.20;;;;;;5033970;28;20249;-62
2022/04/19 01:55:13;;;;;;;3.85;2.33;;;4.70;53.50;;;;;;5034285;28;20195;-62
2022/04/19 01:57:41;;;;;;;6.40;2.53;;;4.80;53.60;;;;;;5033201;28;20688;-62
2022/04/19 02:00:09;;;;;;;4.80;2.03;;;4.70;53.40;;;;;;5034616;28;20278;-62
2022/04/19 02:02:36;;;;;;;4.40;2.20;;;4.70;53.50;;;;;;5033563;28;20190;-62
2022/04/19 02:05:04;;;;;;;3.85;2.38;;;4.70;53.80;;;;;;5034263;28;20981;-62
2022/04/19 02:07:32;;;;;;;5.90;2.60;;;4.70;54.00;;;;;;5034123;28;20202;-62
2022/04/19 02:10:00;;;;;;;4.22;2.50;;;4.70;53.70;;;;;;5033333;28;20223;-63
2022/04/19 02:12:30;;;;;;;3.58;2.20;;;4.70;53.50;;;;;;5033315;28;20195;-62
2022/04/19 02:14:57;;;;;;;3.67;2.45;;;4.70;53.20;;;;;;5013965;28;20655;-62
2022/04/19 02:17:24;;;;;;;4.65;3.00;;;4.60;53.10;;;;;;5013995;28;20245;-62
2022/04/19 02:19:59;;;;;;;4.40;2.55;;;4.50;53.70;;;;;;5032446;28;20217;-62
2022/04/19 02:22:27;;;;;;;2.70;2.10;;;4.40;53.90;;;;;;5033669;28;20199;-62
2022/04/19 02:24:55;;;;;;;4.53;2.30;;;4.40;53.90;;;;;;5033269;28;20245;-62
2022/04/19 02:27:22;;;;;;;4.05;2.50;;;4.30;53.70;;;;;;5033740;28;20592;-62
2022/04/19 02:29:51;;;;;;;5.25;2.70;;;4.20;53.80;;;;;;5033148;28;20233;-62
2022/04/19 02:32:19;;;;;;;5.03;2.50;;;4.20;54.10;;;;;;5033491;28;20313;-62
2022/04/19 02:34:46;;;;;;;4.80;2.58;;;4.10;54.20;;;;;;5033027;28;20282;-62
2022/04/19 02:37:13;;;;;;;3.40;2.28;;;4.00;54.50;;;;;;5033507;28;20553;-66
2022/04/19 02:39:40;;;;;;;3.92;1.63;;;4.00;54.80;;;;;;5032985;28;20274;-62
2022/04/19 02:42:08;;;;;;;4.45;2.17;;;4.00;55.00;;;;;;5033259;28;20261;-62
2022/04/19 02:44:37;;;;;;;3.25;2.17;;;4.10;55.00;;;;;;5032905;28;20195;-61
2022/04/19 02:47:06;;;;;;;4.15;2.85;;;4.10;55.00;;;;;;5033338;28;20195;-62
2022/04/19 02:49:34;;;;;;;3.22;2.10;;;4.10;54.70;;;;;;5032800;28;20258;-62
2022/04/19 02:52:01;;;;;;;4.80;2.20;;;4.10;54.70;;;;;;5033231;28;20241;-62
2022/04/19 02:54:28;;;;;;;6.13;3.15;;;4.10;54.90;;;;;;5032707;28;20195;-62
2022/04/19 02:56:55;;;;;;;5.07;3.40;;;4.10;55.00;;;;;;5032948;28;20198;-62
2022/04/19 02:59:22;;;;;;;4.10;2.70;;;4.00;55.00;;;;;;5032824;28;20278;-62
2022/04/19 03:01:49;;;;;;;4.20;2.75;;;4.10;55.50;;;;;;5032997;28;20642;-62
2022/04/19 03:04:20;;;;;;;4.30;3.05;;;4.10;55.50;;;;;;5032470;28;20191;-62
2022/04/19 03:06:47;;;;;;;6.18;2.50;;;4.20;55.70;;;;;;5032996;28;20729;-62
2022/04/19 03:09:14;;;;;;;4.40;2.38;;;4.20;55.70;;;;;;5031697;28;20267;-63
2022/04/19 03:11:41;;;;;;;10.63;2.40;;;4.30;55.80;;;;;;5032511;28;20186;-63
2022/04/19 03:14:08;;;;;;;3.28;2.90;;;4.30;55.80;;;;;;5032667;28;20183;-62
2022/04/19 03:16:36;;;;;;;5.30;2.70;;;4.30;55.70;;;;;;5032674;28;20194;-62
2022/04/19 03:19:03;;;;;;;5.03;3.38;;;4.20;55.50;;;;;;5032251;28;20193;-62
2022/04/19 03:21:31;;;;;;;4.32;2.88;;;4.30;55.30;;;;;;5032647;28;20241;-62
2022/04/19 03:29:28;;;;;;;3.10;2.50;;;4.30;55.10;;;;;;5032191;28;20222;-62
2022/04/19 03:31:55;;;;;;;5.15;2.95;;;4.30;55.00;;;;;;5032286;28;20188;-62
2022/04/19 03:34:22;;;;;;;4.00;2.67;;;4.30;54.90;;;;;;5032001;28;20649;-63
2022/04/19 03:36:52;;;;;;;4.00;2.55;;;4.20;54.70;;;;;;5032637;28;20226;-62
2022/04/19 03:39:19;;;;;;;3.45;2.75;;;4.20;54.60;;;;;;5032017;28;20179;-62
2022/04/19 03:41:46;;;;;;;3.22;2.60;;;4.20;54.50;;;;;;5032047;28;20227;-62
2022/04/19 03:44:13;;;;;;;4.90;2.50;;;4.10;55.00;;;;;;5031785;28;20191;-62
2022/04/19 03:49:22;;;;;;;4.30;1.95;;;4.00;55.50;;;;;;5031726;28;20211;-62
2022/04/19 03:51:50;;;;;;;4.43;2.42;;;4.00;55.70;;;;;;5031973;28;20187;-63
2022/04/19 03:54:17;;;;;;;3.13;2.20;;;4.00;55.50;;;;;;5031981;28;20209;-62
2022/04/19 03:56:44;;;;;;;2.80;1.83;;;4.00;56.00;;;;;;5032570;28;20195;-62
2022/04/19 03:59:12;;;;;;;5.15;2.42;;;4.00;56.10;;;;;;5031790;28;20257;-62
2022/04/19 04:01:39;;;;;;;3.05;2.13;;;4.00;55.90;;;;;;5032325;28;20281;-62
2022/04/19 04:04:07;;;;;;;3.53;2.15;;;4.00;55.70;;;;;;5032509;28;20198;-62
2022/04/19 04:06:35;;;;;;;3.60;1.80;;;3.90;55.30;;;;;;5032272;28;20554;-62
2022/04/19 04:09:04;;;;;;;3.53;2.55;;;3.90;55.60;;;;;;5032073;28;20249;-62
2022/04/19 04:11:32;;;;;;;4.53;2.70;;;3.90;55.90;;;;;;5031585;28;20191;-62
2022/04/19 04:13:59;;;;;;;3.85;1.83;;;3.90;55.60;;;;;;5032125;28;20198;-62
2022/04/19 04:16:26;;;;;;;3.17;2.33;;;3.90;55.60;;;;;;5031872;28;20191;-62
2022/04/19 04:18:53;;;;;;;3.88;2.33;;;3.90;55.50;;;;;;5032313;28;20191;-62
2022/04/19 04:21:20;;;;;;;3.10;2.25;;;3.90;55.60;;;;;;5032938;28;20191;-62
2022/04/19 04:23:47;;;;;;;2.50;2.10;;;3.80;56.20;;;;;;5036153;28;20187;-62
2022/04/19 04:26:16;;;;;;;4.75;2.65;;;3.80;56.50;;;;;;5035900;28;20596;-63
2022/04/19 04:28:43;;;;;;;3.42;2.10;;;3.90;56.70;;;;;;5036024;28;20195;-62
2022/04/19 04:31:10;;;;;;;4.25;2.33;;;3.90;57.30;;;;;;5035547;28;20183;-62
2022/04/19 04:33:38;;;;;;;4.05;2.45;;;3.90;56.50;;;;;;5035642;28;20588;-63
2022/04/19 04:36:05;;;;;;;3.35;2.10;;;3.90;56.70;;;;;;5036020;28;20253;-62
2022/04/19 04:38:33;;;;;;;2.90;2.05;;;3.90;57.00;;;;;;5035641;28;20199;-62
2022/04/19 04:41:00;;;;;;;2.40;1.80;;;3.90;57.60;;;;;;5035443;28;20262;-63
2022/04/19 04:43:28;;;;;;;5.00;2.50;;;3.90;57.40;;;;;;5035425;28;20654;-62
2022/04/19 04:51:22;;;;;;;4.63;2.55;;;4.10;57.70;;;;;;5035734;28;20189;-62
2022/04/19 04:53:49;;;;;;;5.70;2.88;;;4.20;57.80;;;;;;5035106;28;20194;-62
2022/04/19 04:56:16;;;;;;;3.92;2.20;;;4.30;58.10;;;;;;5035285;28;20230;-62
2022/04/19 04:58:44;;;;;;;3.97;2.58;;;4.40;58.00;;;;;;5035135;28;20245;-62
2022/04/19 05:01:11;;;;;;;6.05;3.10;;;4.50;58.20;;;;;;5035564;28;20264;-63
2022/04/19 05:03:39;;;;;;;5.38;3.53;;;4.60;58.10;;;;;;5035300;28;20197;-62
2022/04/19 05:06:06;;;;;;;5.93;3.65;;;4.70;57.90;;;;;;5035243;28;20187;-62
2022/04/19 05:08:33;;;;;;;4.35;2.88;;;4.80;57.60;;;;;;5035248;28;20183;-62
2022/04/19 05:11:00;;;;;;;4.93;2.92;;;4.90;57.20;;;;;;5035124;28;20304;-62
2022/04/19 05:13:27;;;;;;;8.10;3.80;;;4.90;56.70;;;;;;5034888;28;20193;-62
2022/04/19 05:15:58;;;;;;;7.57;3.75;;;4.90;56.40;;;;;;5035132;28;20202;-63
2022/04/19 05:18:25;;;;;;;5.00;2.92;;;5.00;56.30;;;;;;5034733;28;20543;-62
2022/04/19 05:20:52;;;;;;;5.05;3.28;;;5.00;56.30;;;;;;5031702;28;20534;-62
2022/04/19 05:23:19;;;;;;;6.45;2.85;;;5.10;56.40;;;;;;5033825;28;20199;-63
2022/04/19 05:25:47;;;;;;;6.03;3.00;;;5.10;56.40;;;;;;5033417;28;20237;-62
2022/04/19 05:28:15;;;;;;;4.65;2.75;;;5.10;56.20;;;;;;5032672;28;20533;-63
2022/04/19 05:30:42;;;;;;;6.25;2.65;;;5.10;56.20;;;;;;5033081;28;20234;-62
2022/04/19 05:33:11;;;;;;;3.00;2.00;;;5.10;56.30;;;;;;5032029;28;20553;-65
2022/04/19 05:35:39;;;;;;;8.35;2.53;;;5.10;56.30;;;;;;5032598;28;20274;-63
2022/04/19 05:38:07;;;;;;;13.65;8.50;;;5.10;56.50;;;;;;5031767;28;20199;-63
2022/04/19 05:40:34;;;;;;;36.28;17.95;;;5.20;56.20;;;;;;5031749;28;20721;-62
2022/04/19 05:43:02;;;;;;;7.95;4.65;;;5.10;55.80;;;;;;5032517;28;20222;-62
2022/04/19 05:45:29;;;;;;;6.50;2.90;;;5.10;56.20;;;;;;5032411;28;20617;-62
2022/04/19 05:47:57;;;;;;;4.35;3.10;;;5.10;56.20;;;;;;5032415;28;20195;-63
2022/04/19 05:50:26;;;;;;;4.43;2.40;;;5.00;56.10;;;;;;5032133;28;20222;-62
2022/04/19 05:52:54;;;;;;;6.28;3.53;;;4.90;56.60;;;;;;5032452;28;20195;-64
2022/04/19 05:55:21;;;;;;;6.50;4.25;;;4.80;56.60;;;;;;5031996;28;20191;-62
2022/04/19 05:57:49;;;;;;;9.02;4.60;;;4.90;57.20;;;;;;5032231;28;20191;-62
2022/04/19 06:00:16;;;;;;;8.38;4.10;;;4.90;57.90;;;;;;5032147;28;20195;-62
2022/04/19 06:05:29;;;;;;;9.57;3.65;;;5.00;58.00;;;;;;5032125;28;20194;-68
2022/04/19 06:07:59;;;;;;;6.95;3.67;;;5.10;59.00;;;;;;5031985;28;20207;-63
2022/04/19 06:10:26;;;;;;;4.15;3.00;;;5.30;60.00;;;;;;5032288;28;20219;-62
2022/04/19 06:12:53;;;;;;;5.68;3.03;;;5.50;59.80;;;;;;5031982;28;20272;-62
2022/04/19 06:15:21;;;;;;;5.80;3.97;;;5.70;59.70;;;;;;5032748;28;20199;-62
2022/04/19 06:17:48;;;;;;;3.90;3.00;;;6.00;59.70;;;;;;5027078;28;20187;-64
2022/04/19 06:20:15;;;;;;;5.45;2.80;;;6.20;59.10;;;;;;5030441;28;20241;-62
2022/04/19 06:22:45;;;;;;;4.70;2.80;;;6.40;58.20;;;;;;5030516;28;20252;-63
2022/04/19 06:25:12;;;;;;;5.57;2.85;;;6.60;57.70;;;;;;5030630;28;20190;-64
2022/04/19 06:27:40;;;;;;;6.13;3.05;;;6.80;57.70;;;;;;5031458;28;20290;-63
2022/04/19 06:30:09;;;;;;;5.05;2.85;;;7.10;57.80;;;;;;5031556;28;20270;-62
2022/04/19 06:32:36;;;;;;;4.65;3.08;;;7.30;57.80;;;;;;5030716;28;20213;-62
2022/04/19 06:35:04;;;;;;;5.97;3.00;;;7.50;57.30;;;;;;5030861;28;20183;-63
2022/04/19 06:37:31;;;;;;;3.75;2.75;;;7.80;56.60;;;;;;5030588;28;20553;-62
2022/04/19 06:40:05;;;;;;;6.13;3.03;;;8.00;56.10;;;;;;5031870;28;20191;-62
2022/04/19 06:42:33;;;;;;;4.57;2.30;;;8.20;55.60;;;;;;5031040;28;20243;-63
2022/04/19 06:45:01;;;;;;;4.72;3.00;;;8.40;55.00;;;;;;5030878;28;20634;-62
2022/04/19 06:47:28;;;;;;;5.05;2.83;;;8.60;53.50;;;;;;5030689;28;20187;-62
2022/04/19 06:49:57;;;;;;;4.95;2.88;;;8.80;54.10;;;;;;5028494;28;20226;-63
2022/04/19 06:52:24;;;;;;;3.92;2.45;;;9.00;53.80;;;;;;5025992;28;20241;-63
2022/04/19 06:54:52;;;;;;;4.65;2.67;;;9.30;52.30;;;;;;5030752;28;20187;-63
2022/04/19 06:57:21;;;;;;;4.47;3.95;;;9.50;50.90;;;;;;5031187;28;20667;-62
2022/04/19 06:59:48;;;;;;;4.32;2.60;;;9.70;51.10;;;;;;5025738;28;20191;-62
2022/04/19 07:02:16;;;;;;;5.05;2.67;;;9.90;51.40;;;;;;5023014;28;20205;-65
2022/04/19 07:04:43;;;;;;;4.30;2.83;;;10.10;49.00;;;;;;5028764;28;20201;-63
2022/04/19 07:07:14;;;;;;;3.55;2.80;;;10.30;48.60;;;;;;5027253;28;20206;-64
2022/04/19 07:09:41;;;;;;;4.97;2.88;;;10.50;47.70;;;;;;5029189;28;20298;-63
2022/04/19 07:12:12;;;;;;;4.38;3.10;;;10.60;47.80;;;;;;5030365;28;20191;-63
2022/04/19 07:14:42;;;;;;;4.72;2.95;;;10.80;47.50;;;;;;5030118;28;20219;-63
2022/04/19 07:17:10;;;;;;;3.38;2.88;;;11.00;46.40;;;;;;5031186;28;20294;-62
2022/04/19 07:27:47;;;;;;;4.18;2.70;;;12.00;45.30;;;;;;5026892;28;20336;-62
2022/04/19 07:30:17;;;;;;;4.30;2.10;;;12.40;45.70;;;;;;5030437;28;20466;-63
2022/04/19 07:32:44;;;;;;;10.77;2.95;;;12.70;45.50;;;;;;5030452;28;20245;-65
2022/04/19 07:35:11;;;;;;;3.75;2.50;;;13.10;45.60;;;;;;5030528;28;20194;-63
2022/04/19 07:37:39;;;;;;;5.75;2.53;;;13.40;46.10;;;;;;5030153;28;20266;-62
2022/04/19 07:40:07;;;;;;;4.10;2.47;;;13.80;45.90;;;;;;5030566;28;20179;-62
2022/04/19 07:42:34;;;;;;;4.15;2.40;;;14.20;46.90;;;;;;5030624;28;20219;-64
2022/04/19 07:45:02;;;;;;;4.28;2.10;;;14.70;47.20;;;;;;5030093;28;20191;-63
2022/04/19 07:47:32;;;;;;;2.97;1.90;;;15.20;45.50;;;;;;5030553;28;20195;-63
2022/04/19 07:50:00;;;;;;;2.97;2.30;;;15.70;44.20;;;;;;5030382;28;20513;-62
2022/04/19 07:52:27;;;;;;;3.77;2.50;;;16.20;44.70;;;;;;5030719;28;20827;-63
2022/04/19 07:54:55;;;;;;;3.07;2.13;;;16.80;42.10;;;;;;5030241;28;20472;-63
2022/04/19 07:57:22;;;;;;;5.30;2.30;;;17.30;41.90;;;;;;5030086;28;20468;-63
2022/04/19 07:59:54;;;;;;;8.00;2.90;;;17.80;41.30;;;;;;5029415;28;20477;-67
2022/04/19 08:02:21;;;;;;;3.70;2.07;;;18.20;40.50;;;;;;5026924;28;20433;-63
2022/04/19 08:04:50;;;;;;;7.00;2.33;;;18.60;40.70;;;;;;5029913;28;20442;-63
2022/04/19 08:07:17;;;;;;;4.73;2.33;;;19.00;37.00;;;;;;5029729;28;20863;-65
2022/04/19 08:09:44;;;;;;;2.93;2.50;;;19.40;36.30;;;;;;5030403;28;20495;-63
2022/04/19 08:12:12;;;;;;;5.87;2.63;;;19.80;36.80;;;;;;5030380;28;20441;-64
2022/04/19 08:14:41;;;;;;;2.97;1.90;;;20.30;36.60;;;;;;5030588;28;20785;-64
2022/04/19 08:17:08;;;;;;;5.07;2.90;;;20.70;35.50;;;;;;5029813;28;20989;-65
2022/04/19 08:19:36;;;;;;;3.43;2.60;;;21.00;33.30;;;;;;5030504;28;20828;-63
2022/04/19 08:22:06;;;;;;;3.97;2.77;;;21.30;31.80;;;;;;5030290;28;20804;-64
2022/04/19 08:24:33;;;;;;;4.43;2.30;;;21.60;30.30;;;;;;5029788;28;20441;-63
2022/04/19 08:27:00;;;;;;;3.60;2.60;;;21.80;30.40;;;;;;5030147;28;20450;-64
2022/04/19 08:29:28;;;;;;;2.83;1.83;;;22.10;29.50;;;;;;5030002;28;20438;-63
2022/04/19 08:31:55;;;;;;;3.63;2.60;;;22.40;28.80;;;;;;5029622;28;20481;-63
2022/04/19 08:34:22;;;;;;;3.63;2.13;;;22.70;28.30;;;;;;5030257;28;20469;-70
2022/04/19 08:36:52;;;;;;;5.60;2.57;;;23.00;29.00;;;;;;5030070;28;20799;-64
2022/04/19 08:39:21;;;;;;;2.90;2.00;;;23.30;28.50;;;;;;5029817;28;20535;-63
2022/04/19 08:41:50;;;;;;;2.93;1.93;;;23.60;27.10;;;;;;5029056;28;20659;-67
2022/04/19 08:44:17;;;;;;;3.00;1.50;;;24.00;24.90;;;;;;5029351;28;20442;-63
2022/04/19 08:46:46;;;;;;;2.83;1.73;;;24.20;26.80;;;;;;5030179;28;20947;-64
2022/04/19 08:49:14;;;;;;;4.17;2.07;;;24.50;24.70;;;;;;5029745;28;20464;-64
2022/04/19 08:51:42;;;;;;;2.90;1.70;;;24.90;25.90;;;;;;5028977;28;20477;-64
2022/04/19 08:59:42;;;;;;;3.07;1.93;;;25.30;20.00;;;;;;5029860;28;20605;-64
2022/04/19 09:02:21;;;;;;;3.70;2.30;;;25.00;21.00;;;;;;5027961;28;20936;-64
2022/04/19 09:04:48;;;;;;;4.77;2.53;;;25.20;21.90;;;;;;5028893;28;20434;-64
2022/04/19 09:07:16;;;;;;;3.77;1.63;;;25.50;21.70;;;;;;5029179;28;20446;-64
2022/04/19 09:09:43;;;;;;;2.30;1.60;;;25.70;23.20;;;;;;5032200;28;20465;-64
2022/04/19 09:12:13;;;;;;;3.00;1.77;;;26.00;21.60;;;;;;5032423;28;20477;-64
2022/04/19 09:14:58;;;;;;;4.90;1.60;;;26.30;21.10;;;;;;5032313;28;20438;-64
2022/04/19 09:17:36;;;;;;;3.47;1.60;;;26.40;20.90;;;;;;5031710;28;20458;-64
2022/04/19 09:20:12;;;;;;;3.10;1.60;;;26.50;19.90;;;;;;5029030;28;20445;-64
2022/04/19 09:22:39;;;;;;;7.20;1.33;;;26.60;21.10;;;;;;5033499;28;20438;-63
2022/04/19 09:25:25;;;;;;;3.80;2.00;;;26.90;21.20;;;;;;5032843;28;20443;-65
2022/04/19 09:27:56;;;;;;;3.23;1.83;;;27.30;21.40;;;;;;5033345;28;20497;-64
2022/04/19 09:30:25;;;;;;;2.63;1.60;;;27.60;19.60;;;;;;5032415;28;20444;-64
2022/04/19 09:33:09;;;;;;;3.03;1.90;;;27.60;20.10;;;;;;5033085;28;20494;-64
2022/04/19 09:35:39;;;;;;;2.73;1.70;;;27.80;19.70;;;;;;5032767;28;20871;-64
2022/04/19 09:38:08;;;;;;;3.00;1.57;;;27.60;17.90;;;;;;5033273;28;20441;-64
2022/04/19 09:40:37;;;;;;;3.80;1.70;;;27.50;17.50;;;;;;5032450;28;20955;-63
2022/04/19 09:43:13;;;;;;;3.27;2.00;;;27.10;17.40;;;;;;5032819;28;20446;-64
2022/04/19 09:45:54;;;;;;;2.80;1.60;;;26.70;17.20;;;;;;5032505;28;20857;-65
2022/04/19 09:48:24;;;;;;;3.90;1.87;;;26.80;18.50;;;;;;5028937;28;20441;-63
2022/04/19 09:50:54;;;;;;;4.77;1.93;;;26.80;17.10;;;;;;5032467;28;20824;-64
2022/04/19 09:53:23;;;;;;;3.13;1.87;;;26.80;18.90;;;;;;5031602;28;20448;-64
2022/04/19 09:55:53;;;;;;;2.73;1.70;;;27.00;18.50;;;;;;5029043;28;20436;-64
2022/04/19 09:58:22;;;;;;;4.50;2.37;;;27.50;18.10;;;;;;5032171;28;20440;-64
2022/04/19 10:00:50;;;;;;;3.17;1.93;;;27.60;17.60;;;;;;5032272;28;20496;-66
2022/04/19 10:08:59;;;;;;;2.60;1.70;;;27.30;18.60;;;;;;5032264;28;20432;-64
2022/04/19 10:11:28;;;;;;;3.63;1.43;;;27.10;17.90;;;;;;5031503;28;20441;-64
2022/04/19 10:13:59;;;;;;;4.97;1.80;;;27.00;17.70;;;;;;5032442;28;20456;-63
2022/04/19 10:16:29;;;;;;;2.97;1.70;;;26.80;17.30;;;;;;5031826;28;20449;-64
2022/04/19 10:18:56;;;;;;;2.43;1.60;;;26.60;18.20;;;;;;5027430;28;20446;-64
2022/04/19 10:21:27;;;;;;;2.93;1.77;;;26.50;16.90;;;;;;5031727;28;20474;-64
2022/04/19 10:24:10;;;;;;;3.10;1.87;;;26.20;16.80;;;;;;5031722;28;20448;-64
2022/04/19 10:26:45;;;;;;;3.03;2.07;;;26.00;18.30;;;;;;5029772;28;20489;-63
2022/04/19 10:29:26;;;;;;;3.63;1.57;;;25.90;19.20;;;;;;5031476;28;20526;-64
2022/04/19 10:32:01;;;;;;;2.80;1.93;;;26.00;19.40;;;;;;5032186;28;20440;-64
2022/04/19 10:34:30;;;;;;;2.97;1.50;;;26.10;19.50;;;;;;5030793;28;20441;-64
2022/04/19 10:37:08;;;;;;;2.90;2.10;;;26.20;18.70;;;;;;5030432;28;20913;-61
2022/04/19 10:39:44;;;;;;;3.83;1.50;;;26.20;18.60;;;;;;5031298;28;20483;-64
2022/04/19 10:42:29;;;;;;;2.27;1.33;;;26.20;17.90;;;;;;5031575;28;20560;-64
2022/04/19 10:44:58;;;;;;;2.90;1.37;;;26.00;17.50;;;;;;5020967;28;20475;-66
2022/04/19 10:47:28;;;;;;;3.90;2.07;;;25.90;17.40;;;;;;5030493;28;20876;-63
2022/04/19 10:50:02;;;;;;;5.83;1.50;;;26.00;18.40;;;;;;5029966;28;20452;-65
2022/04/19 10:52:56;;;;;;;3.23;1.60;;;26.10;18.50;;;;;;5026108;28;20519;-64
2022/04/19 10:55:26;;;;;;;2.80;1.70;;;26.00;17.70;;;;;;5030711;28;20489;-65
2022/04/19 10:58:09;;;;;;;3.57;2.30;;;26.00;17.20;;;;;;5028313;28;20442;-64
2022/04/19 11:00:53;;;;;;;3.50;2.10;;;25.60;17.10;;;;;;5028409;28;20446;-63
2022/04/19 11:03:22;;;;;;;5.90;1.70;;;25.30;18.20;;;;;;5027127;28;20438;-63
2022/04/19 11:05:51;;;;;;;2.47;1.60;;;25.30;18.80;;;;;;5031082;28;20438;-64
2022/04/19 11:08:37;;;;;;;3.00;1.50;;;25.40;18.20;;;;;;5030436;28;20446;-66
2022/04/19 11:11:25;;;;;;;3.70;1.60;;;25.40;18.30;;;;;;5029105;28;20446;-63
2022/04/19 11:14:22;;;;;;;2.50;1.47;;;25.40;19.00;;;;;;5030935;28;20448;-63
2022/04/19 11:16:54;;;;;;;2.30;1.30;;;25.40;18.10;;;;;;5030660;28;20811;-64
2022/04/19 11:19:25;;;;;;;2.57;1.40;;;25.50;18.70;;;;;;5030779;28;20492;-64
2022/04/19 11:21:55;;;;;;;3.07;1.57;;;25.40;17.80;;;;;;5031259;28;20490;-64
2022/04/19 11:25:01;;;;;;;3.10;1.17;;;25.30;18.10;;;;;;5030751;28;20526;-64
2022/04/19 11:28:17;;;;;;;3.57;1.40;;;25.20;18.80;;;;;;5030907;28;21013;-64
2022/04/19 11:30:46;;;;;;;6.43;2.10;;;25.30;19.90;;;;;;4967765;28;21124;-66
2022/04/19 11:33:24;;;;;;;3.47;2.03;;;25.20;17.60;;;;;;5024977;28;20453;-65
2022/04/19 11:36:01;;;;;;;3.40;1.60;;;24.90;18.40;;;;;;5031172;28;20430;-64
2022/04/19 11:38:28;;;;;;;2.73;1.40;;;24.70;18.70;;;;;;5027044;28;20434;-64
2022/04/19 11:49:24;;;;;;;2.57;1.63;;;25.10;19.60;;;;;;5030792;28;20433;-64
2022/04/19 11:51:52;;;;;;;2.83;1.40;;;25.00;19.00;;;;;;5027722;28;20450;-64
2022/04/19 11:54:20;;;;;;;3.80;2.40;;;25.10;19.00;;;;;;5030957;28;20476;-63
2022/04/19 11:56:52;;;;;;;4.50;1.87;;;24.90;18.80;;;;;;5029959;28;20443;-64
2022/04/19 11:59:25;;;;;;;5.40;2.10;;;24.90;19.30;;;;;;5030932;28;20442;-65
2022/04/19 12:01:53;;;;;;;2.70;1.50;;;24.90;19.20;;;;;;5030343;28;20561;-65
2022/04/19 12:04:23;;;;;;;3.80;2.10;;;24.80;18.90;;;;;;5026704;28;20452;-64
2022/04/19 12:06:52;;;;;;;3.10;1.50;;;24.60;18.20;;;;;;5030447;28;20441;-63
2022/04/19 12:09:23;;;;;;;2.90;1.60;;;24.40;18.60;;;;;;5029837;28;20442;-63
2022/04/19 12:11:52;;;;;;;4.53;1.90;;;24.40;19.20;;;;;;5026427;28;20529;-64
2022/04/19 12:14:28;;;;;;;3.07;1.63;;;24.30;18.80;;;;;;5030359;28;20449;-64
2022/04/19 12:17:00;;;;;;;4.57;1.63;;;24.10;18.80;;;;;;5029998;28;20438;-64
2022/04/19 12:19:38;;;;;;;3.13;1.50;;;24.00;19.50;;;;;;5030308;28;20461;-64
2022/04/19 12:22:21;;;;;;;3.67;1.90;;;24.00;20.70;;;;;;5029754;28;20530;-64
2022/04/19 12:24:53;;;;;;;5.10;1.37;;;23.90;20.40;;;;;;5028228;28;20449;-64
2022/04/19 12:27:25;;;;;;;3.20;1.93;;;23.80;19.10;;;;;;5029604;28;20520;-64
2022/04/19 12:29:59;;;;;;;4.77;1.63;;;23.60;19.60;;;;;;5030640;28;20488;-64
2022/04/19 12:32:29;;;;;;;3.33;1.70;;;23.50;19.70;;;;;;5029715;28;20521;-65
2022/04/19 12:35:12;;;;;;;3.53;1.93;;;23.40;19.80;;;;;;5030398;28;20441;-63
2022/04/19 12:37:39;;;;;;;2.40;1.27;;;23.40;19.90;;;;;;5029671;28;20445;-64
2022/04/19 12:40:08;;;;;;;2.60;1.47;;;23.40;19.50;;;;;;5029900;28;20809;-63
2022/04/19 12:42:50;;;;;;;4.97;2.27;;;23.10;18.30;;;;;;5031395;28;20492;-63
2022/04/19 12:45:19;;;;;;;2.80;1.43;;;22.90;18.10;;;;;;5030268;28;20438;-63
2022/04/19 12:47:47;;;;;;;2.87;1.50;;;22.70;18.80;;;;;;5034085;28;20445;-64
2022/04/19 12:50:19;;;;;;;2.30;1.30;;;22.60;20.30;;;;;;5033855;28;20433;-65
2022/04/19 12:52:47;;;;;;;5.77;1.70;;;22.60;20.00;;;;;;5030188;28;20434;-67
2022/04/19 12:55:16;;;;;;;3.00;1.90;;;22.50;20.20;;;;;;5034222;28;20476;-64
2022/04/19 12:57:45;;;;;;;2.87;1.93;;;22.50;20.50;;;;;;5033207;28;20464;-64
2022/04/19 13:00:13;;;;;;;2.67;1.60;;;22.60;21.30;;;;;;5029324;28;20928;-63
2022/04/19 13:02:43;;;;;;;5.50;1.50;;;22.60;21.10;;;;;;5033308;28;20551;-63
2022/04/19 13:05:10;;;;;;;2.60;1.40;;;22.60;20.60;;;;;;5033443;28;20441;-64
2022/04/19 13:13:06;;;;;;;5.63;1.57;;;22.60;20.00;;;;;;4986480;28;20803;-63
2022/04/19 13:15:34;;;;;;;2.80;1.57;;;22.40;19.80;;;;;;5032372;28;20444;-63
2022/04/19 13:18:01;;;;;;;2.73;1.67;;;22.20;20.50;;;;;;5032415;28;20853;-64
2022/04/19 13:20:29;;;;;;;2.50;1.50;;;22.10;20.50;;;;;;5032217;28;20442;-64
2022/04/19 13:22:58;;;;;;;2.93;2.07;;;22.10;21.30;;;;;;5031196;28;20489;-65
2022/04/19 13:25:25;;;;;;;5.33;1.73;;;22.10;20.60;;;;;;5031621;28;20465;-64
2022/04/19 13:27:52;;;;;;;2.53;1.77;;;22.30;20.40;;;;;;5031429;28;20430;-63
2022/04/19 13:30:19;;;;;;;4.83;1.80;;;22.20;20.40;;;;;;5031650;28;20450;-65
2022/04/19 13:32:47;;;;;;;3.63;2.03;;;22.30;20.20;;;;;;5031958;28;20500;-64
2022/04/19 13:35:14;;;;;;;3.03;1.80;;;22.30;20.50;;;;;;5031358;28;20452;-64
2022/04/19 13:40:28;;;;;;;3.10;1.60;;;22.40;20.00;;;;;;5030855;28;20515;-64
2022/04/19 13:42:55;;;;;;;3.03;1.97;;;22.20;20.20;;;;;;5031185;28;20477;-64
2022/04/19 13:45:24;;;;;;;4.00;2.00;;;22.20;21.00;;;;;;5030957;28;20924;-64
2022/04/19 13:47:51;;;;;;;3.33;2.40;;;22.10;21.10;;;;;;5030512;28;20928;-66
2022/04/19 13:50:19;;;;;;;3.57;2.27;;;22.10;21.70;;;;;;5030384;28;20444;-63
2022/04/19 13:52:46;;;;;;;5.93;1.97;;;22.00;21.20;;;;;;5031670;28;20511;-64
2022/04/19 13:55:18;;;;;;;3.53;2.40;;;22.00;21.20;;;;;;5027207;28;20481;-64
2022/04/19 13:57:49;;;;;;;5.33;3.23;;;22.10;20.80;;;;;;5031759;28;20445;-63
2022/04/19 14:00:17;;;;;;;4.90;2.70;;;22.10;21.20;;;;;;5029983;28;20495;-64